Overview Statistics Trail Chart Weather Telemetry Raw packets
 

This is the latest recevied weather packets stored in our database for station/object WW6Q. If no packets are shown the sender has not sent any weather packets the latest 10 day(s).

<< 48 49 50 51 52 53 54 >>
Time Temp. Humidity Pressure Rain* Wind** Luminosity Snow
1788297687 30.56° C 74% 1014.8 hPa 0 mm - 167 W/m² -
1788297382 30.56° C 77% 1014.6 hPa 0 mm - 189 W/m² -
1788297079 30.56° C 75% 1014.7 hPa 0 mm - 200 W/m² -
1788296774 30° C 75% 1014.8 hPa 0 mm - 210 W/m² -
1788296471 30° C 76% 1014.6 hPa 0 mm - 210 W/m² -
1788296166 30° C 75% 1014.7 hPa 0 mm - 186 W/m² -
1788295865 30.56° C 73% 1015 hPa 0 mm - 171 W/m² -
1788295562 30.56° C 74% 1015 hPa 0 mm - 150 W/m² -
1788295256 30.56° C 72% 1015 hPa 0 mm - 150 W/m² -
1788294956 30.56° C 71% 1015.2 hPa 0 mm - 167 W/m² -
1788294651 31.11° C 71% 1015.5 hPa 0 mm - 169 W/m² -
1788294351 31.11° C 75% 1015.3 hPa 0 mm - 302 W/m² -
1788294047 30.56° C 76% 1015.4 hPa 0 mm - 301 W/m² -
1788293743 30.56° C 72% 1015.6 hPa 0 mm - 275 W/m² -
1788293442 31.11° C 72% 1015.9 hPa 0 mm - 256 W/m² -
1788293141 30.56° C 73% 1015.8 hPa 0 mm - 279 W/m² -
1788292842 30° C 75% 1015.8 hPa 0 mm - 225 W/m² -
1788292539 30° C 75% 1015.7 hPa 0 mm - 188 W/m² -
1788292234 30° C 76% 1015.7 hPa 0 mm - 182 W/m² -
1788291929 30° C 74% 1015.7 hPa 0 mm - 237 W/m² -
1788291624 30.56° C 72% 1015.8 hPa 0 mm - 302 W/m² -
1788291324 30° C 74% 1015.7 hPa 0 mm - 779 W/m² -
1788291019 30° C 74% 1015.8 hPa 0 mm - 313 W/m² -
1788290714 29.44° C 77% 1015.7 hPa 0 mm - 338 W/m² -
1788290410 28.89° C 77% 1015.9 hPa 0 mm - 506 W/m² -

* Rain latest hour (hover to see other rain measurements)
** Current wind speed in m/s (hover to see current wind gust speed)